Time;durP1;ratioP1;P1;durP2;ratioP2;P2;SDS_P1;SDS_P2;PMS_P1;PMS_P2;Temp;Humidity;BMP_temperature;BMP_pressure;BME280_temperature;BME280_humidity;BME280_pressure;Samples;Min_cycle;Max_cycle;Signal;HPM_P1;HPM_P2
2022/04/02 00:01:42;;;;;;;37.83;28.67;;;1.20;99.90;;;;;;4991740;28;20188;-66
2022/04/02 00:04:09;;;;;;;36.07;28.87;;;1.20;99.90;;;;;;4989950;28;20208;-66
2022/04/02 00:06:35;;;;;;;32.50;28.00;;;1.10;99.90;;;;;;4973577;28;20283;-66
2022/04/02 00:09:02;;;;;;;35.13;28.60;;;1.10;99.90;;;;;;4991389;28;20180;-66
2022/04/02 00:11:28;;;;;;;31.77;27.20;;;1.10;99.90;;;;;;4991665;28;20176;-66
2022/04/02 00:13:54;;;;;;;33.63;26.37;;;1.10;99.90;;;;;;4991856;28;20189;-66
2022/04/02 00:16:20;;;;;;;29.53;25.73;;;1.10;99.90;;;;;;4973954;28;20173;-66
2022/04/02 00:18:49;;;;;;;31.97;25.50;;;1.00;99.90;;;;;;4974311;28;20184;-66
2022/04/02 00:21:15;;;;;;;31.77;26.17;;;1.00;99.90;;;;;;4995031;28;20169;-66
2022/04/02 00:23:44;;;;;;;33.20;27.10;;;1.00;99.90;;;;;;4977800;28;20196;-66
2022/04/02 00:26:15;;;;;;;32.60;28.07;;;1.00;99.90;;;;;;4962144;28;20185;-66
2022/04/02 00:28:42;;;;;;;32.67;27.53;;;1.00;99.90;;;;;;4977990;28;20661;-66
2022/04/02 00:31:10;;;;;;;30.53;25.57;;;1.00;99.90;;;;;;4995943;28;20551;-66
2022/04/02 00:33:37;;;;;;;28.43;23.20;;;1.00;99.90;;;;;;4995345;28;20189;-66
2022/04/02 00:36:03;;;;;;;31.73;24.23;;;1.00;99.90;;;;;;4995294;28;20564;-66
2022/04/02 00:38:29;;;;;;;27.87;22.93;;;1.00;99.90;;;;;;4977425;28;20185;-66
2022/04/02 00:40:55;;;;;;;23.57;21.27;;;1.00;99.90;;;;;;4995174;28;20189;-66
2022/04/02 00:43:53;;;;;;;24.93;22.40;;;1.00;99.90;;;;;;4995373;28;20176;-66
2022/04/02 00:46:19;;;;;;;22.80;20.33;;;1.00;99.90;;;;;;4994304;28;20204;-66
2022/04/02 00:48:45;;;;;;;21.33;19.13;;;1.00;99.90;;;;;;4976582;28;20209;-66
2022/04/02 00:51:15;;;;;;;22.07;19.37;;;1.00;99.90;;;;;;4995226;28;20662;-66
2022/04/02 00:53:45;;;;;;;21.33;19.10;;;1.10;99.90;;;;;;4977458;28;20173;-66
2022/04/02 00:56:13;;;;;;;23.93;17.90;;;1.10;99.90;;;;;;4995078;28;20169;-66
2022/04/02 00:58:39;;;;;;;21.37;18.37;;;1.10;99.90;;;;;;4995009;28;20265;-66
2022/04/02 01:01:06;;;;;;;20.57;18.40;;;1.20;99.90;;;;;;4977594;28;20267;-67
2022/04/02 01:03:32;;;;;;;19.40;17.30;;;1.10;99.90;;;;;;4995187;28;20518;-67
2022/04/02 01:05:58;;;;;;;19.77;15.67;;;1.10;99.90;;;;;;4976872;28;20304;-67
2022/04/02 01:08:24;;;;;;;22.27;18.00;;;1.10;99.90;;;;;;4976234;28;20267;-67
2022/04/02 01:10:49;;;;;;;15.40;14.00;;;1.10;99.90;;;;;;4976290;28;20276;-67
2022/04/02 01:13:16;;;;;;;18.63;16.77;;;1.10;99.90;;;;;;4976908;28;20271;-66
2022/04/02 01:15:42;;;;;;;21.23;17.20;;;1.00;99.90;;;;;;4994582;28;20687;-67
2022/04/02 01:18:08;;;;;;;19.50;17.57;;;1.10;99.90;;;;;;4977036;28;20187;-67
2022/04/02 01:20:34;;;;;;;18.53;16.60;;;1.10;99.90;;;;;;4994016;28;20173;-67
2022/04/02 01:23:00;;;;;;;18.87;16.93;;;1.10;99.90;;;;;;4993953;28;20223;-67
2022/04/02 01:25:34;;;;;;;20.03;17.90;;;1.10;99.90;;;;;;4993402;28;20205;-67
2022/04/02 01:28:00;;;;;;;20.07;18.03;;;1.10;99.90;;;;;;4977162;28;20204;-67
2022/04/02 01:30:27;;;;;;;20.33;18.37;;;1.20;99.90;;;;;;4976774;28;20185;-67
2022/04/02 01:32:53;;;;;;;19.70;17.00;;;1.10;99.90;;;;;;4977021;28;20173;-66
2022/04/02 01:35:22;;;;;;;19.07;17.07;;;1.10;99.90;;;;;;4976694;28;20217;-67
2022/04/02 01:37:49;;;;;;;19.60;16.67;;;1.10;99.90;;;;;;4994330;28;20260;-66
2022/04/02 01:40:14;;;;;;;18.83;16.77;;;1.10;99.90;;;;;;4994062;28;20184;-66
2022/04/02 01:42:40;;;;;;;22.73;17.43;;;1.10;99.90;;;;;;4976107;28;20180;-67
2022/04/02 01:45:07;;;;;;;18.10;16.43;;;1.10;99.90;;;;;;4975817;28;20251;-66
2022/04/02 01:47:32;;;;;;;18.57;16.40;;;1.10;99.90;;;;;;4975836;28;20204;-67
2022/04/02 01:49:58;;;;;;;17.57;15.97;;;1.10;99.90;;;;;;4976378;28;20681;-67
2022/04/02 01:52:24;;;;;;;17.83;16.13;;;1.10;99.90;;;;;;4993364;28;20169;-66
2022/04/02 01:54:49;;;;;;;17.70;15.90;;;1.10;99.90;;;;;;4975126;28;20266;-66
2022/04/02 01:57:16;;;;;;;19.43;17.37;;;1.10;99.90;;;;;;4975093;28;20486;-66
2022/04/02 01:59:44;;;;;;;18.33;16.40;;;1.10;99.90;;;;;;4993497;28;20545;-66
2022/04/02 02:02:11;;;;;;;18.27;16.47;;;1.10;99.90;;;;;;4993982;28;20184;-66
2022/04/02 02:04:37;;;;;;;18.27;16.57;;;1.10;99.90;;;;;;4992497;28;20266;-66
2022/04/02 02:07:04;;;;;;;18.20;16.40;;;1.10;99.90;;;;;;4976691;28;20176;-66
2022/04/02 02:09:30;;;;;;;18.07;16.13;;;1.10;99.90;;;;;;4975883;28;20685;-66
2022/04/02 02:11:56;;;;;;;16.57;14.67;;;1.00;99.90;;;;;;4976735;28;20173;-67
2022/04/02 02:14:22;;;;;;;17.27;15.30;;;1.10;99.90;;;;;;4993724;28;20232;-67
2022/04/02 02:16:49;;;;;;;17.77;15.93;;;1.10;99.90;;;;;;4975119;28;20480;-66
2022/04/02 02:19:14;;;;;;;17.50;15.73;;;1.10;99.90;;;;;;4975555;28;20613;-66
2022/04/02 02:21:40;;;;;;;19.03;17.00;;;1.10;99.90;;;;;;4992970;28;20274;-66
2022/04/02 02:24:06;;;;;;;16.17;14.83;;;1.20;99.90;;;;;;4975449;28;20258;-66
2022/04/02 02:26:32;;;;;;;17.83;15.27;;;1.10;99.90;;;;;;4992510;28;20173;-66
2022/04/02 02:28:58;;;;;;;16.07;14.67;;;1.10;99.90;;;;;;4993274;28;20212;-65
2022/04/02 02:31:24;;;;;;;20.43;15.00;;;1.10;99.90;;;;;;4975327;28;20172;-66
2022/04/02 02:36:33;;;;;;;15.77;14.17;;;1.00;99.90;;;;;;4992617;28;20729;-66
2022/04/02 02:39:00;;;;;;;16.67;15.07;;;1.10;99.90;;;;;;4975615;28;20212;-67
2022/04/02 02:41:26;;;;;;;16.90;13.57;;;1.00;99.90;;;;;;4975777;28;20665;-66
2022/04/02 02:43:51;;;;;;;15.13;13.60;;;1.00;99.90;;;;;;4992716;28;20584;-66
2022/04/02 02:46:17;;;;;;;14.00;12.73;;;1.00;99.90;;;;;;4974907;28;20364;-67
2022/04/02 02:48:44;;;;;;;14.37;13.07;;;1.00;99.90;;;;;;4974523;28;20199;-66
2022/04/02 02:51:10;;;;;;;14.67;13.47;;;0.90;99.90;;;;;;4993025;28;20670;-66
2022/04/02 02:53:36;;;;;;;14.03;12.93;;;0.90;99.90;;;;;;4993169;28;20176;-66
2022/04/02 02:56:01;;;;;;;15.83;13.07;;;0.90;99.90;;;;;;4975351;28;20761;-67
2022/04/02 02:58:27;;;;;;;14.07;12.77;;;0.90;99.90;;;;;;4975130;28;20208;-66
2022/04/02 03:00:52;;;;;;;14.57;13.07;;;0.90;99.90;;;;;;4975408;28;20173;-65
2022/04/02 03:03:18;;;;;;;16.67;13.27;;;0.90;99.90;;;;;;4974664;28;20250;-66
2022/04/02 03:05:44;;;;;;;14.13;12.93;;;0.90;99.90;;;;;;4991786;28;20682;-66
2022/04/02 03:08:09;;;;;;;13.77;12.53;;;0.90;99.90;;;;;;4992784;28;20176;-65
2022/04/02 03:10:36;;;;;;;14.90;13.47;;;1.00;99.90;;;;;;4991898;28;20179;-67
2022/04/02 03:13:01;;;;;;;14.83;13.43;;;0.90;99.90;;;;;;4991781;28;20169;-66
2022/04/02 03:15:27;;;;;;;14.70;12.83;;;0.90;99.90;;;;;;4991684;28;20207;-66
2022/04/02 03:17:54;;;;;;;14.40;13.10;;;0.90;99.90;;;;;;4992690;28;20207;-66
2022/04/02 03:20:21;;;;;;;14.93;13.33;;;0.90;99.90;;;;;;4974510;28;20185;-66
2022/04/02 03:22:49;;;;;;;14.90;13.23;;;0.90;99.90;;;;;;4992197;28;20243;-66
2022/04/02 03:25:17;;;;;;;14.43;13.07;;;0.90;99.90;;;;;;4991733;28;20721;-67
2022/04/02 03:27:44;;;;;;;14.97;13.40;;;0.90;99.90;;;;;;4974749;28;20191;-67
2022/04/02 03:30:11;;;;;;;14.13;12.77;;;1.00;99.90;;;;;;4992529;28;20181;-65
2022/04/02 03:32:38;;;;;;;14.50;11.23;;;1.10;99.90;;;;;;4991024;28;20260;-66
2022/04/02 03:35:06;;;;;;;12.97;11.97;;;1.20;99.90;;;;;;4974905;28;20227;-67
2022/04/02 03:37:36;;;;;;;12.30;11.40;;;1.20;99.90;;;;;;4974879;28;20213;-67
2022/04/02 03:40:05;;;;;;;14.57;13.00;;;1.20;99.90;;;;;;4974497;28;20196;-67
2022/04/02 03:42:31;;;;;;;14.30;13.20;;;1.10;99.90;;;;;;4992347;28;20417;-67
2022/04/02 03:44:56;;;;;;;14.50;13.50;;;1.20;99.90;;;;;;5006940;28;20287;-67
2022/04/02 03:47:22;;;;;;;13.30;12.30;;;1.10;99.90;;;;;;4974655;28;20176;-67
2022/04/02 03:49:49;;;;;;;12.77;11.57;;;1.10;99.90;;;;;;4991195;28;20211;-67
2022/04/02 03:52:15;;;;;;;12.57;11.30;;;1.10;99.90;;;;;;4974682;28;20564;-67
2022/04/02 03:54:41;;;;;;;11.30;10.40;;;1.10;99.90;;;;;;4990500;28;20243;-67
2022/04/02 03:57:09;;;;;;;12.90;11.80;;;1.10;99.90;;;;;;4974354;28;20654;-66
2022/04/02 03:59:35;;;;;;;11.80;11.00;;;1.10;99.90;;;;;;4992042;28;20196;-67
2022/04/02 04:02:01;;;;;;;13.63;12.57;;;1.10;99.90;;;;;;4973704;28;20189;-67
2022/04/02 04:04:27;;;;;;;13.20;12.20;;;1.10;99.90;;;;;;4991213;28;20215;-66
2022/04/02 04:06:54;;;;;;;12.93;11.77;;;1.10;99.90;;;;;;4990683;28;20176;-65
2022/04/02 04:09:20;;;;;;;11.47;10.67;;;1.10;99.90;;;;;;4991891;28;20244;-67
2022/04/02 04:11:47;;;;;;;12.53;11.60;;;1.10;99.90;;;;;;4991474;28;20181;-66
2022/04/02 04:14:14;;;;;;;10.90;10.00;;;1.10;99.90;;;;;;4974448;28;20671;-66
2022/04/02 04:16:39;;;;;;;11.63;10.83;;;1.10;99.90;;;;;;4991735;28;20289;-66
2022/04/02 04:19:05;;;;;;;11.70;10.83;;;1.20;99.90;;;;;;4992027;28;20851;-66
2022/04/02 04:21:30;;;;;;;11.03;10.23;;;1.20;99.90;;;;;;4974447;28;20592;-66
2022/04/02 04:23:56;;;;;;;12.43;11.23;;;1.20;99.90;;;;;;4991111;28;20212;-66
2022/04/02 04:26:22;;;;;;;10.50;9.60;;;1.10;99.90;;;;;;4990810;28;20169;-67
2022/04/02 04:28:48;;;;;;;11.07;10.17;;;1.20;99.90;;;;;;4991939;28;20185;-67
2022/04/02 04:31:17;;;;;;;10.73;10.00;;;1.20;99.90;;;;;;4973790;28;20179;-66
2022/04/02 04:33:46;;;;;;;11.57;10.77;;;1.20;99.90;;;;;;4974136;28;20176;-66
2022/04/02 04:36:13;;;;;;;10.77;9.97;;;1.20;99.90;;;;;;4991263;28;20592;-66
2022/04/02 04:38:38;;;;;;;12.63;11.53;;;1.20;99.90;;;;;;4991960;28;20594;-66
2022/04/02 04:41:04;;;;;;;12.37;11.47;;;1.10;99.90;;;;;;4973769;28;20264;-66
2022/04/02 04:43:30;;;;;;;10.37;9.73;;;1.10;99.90;;;;;;4973796;28;20181;-66
2022/04/02 04:45:56;;;;;;;10.63;9.93;;;1.10;99.90;;;;;;4973225;28;20307;-66
2022/04/02 04:48:22;;;;;;;10.63;9.83;;;1.10;99.90;;;;;;4990823;28;20184;-66
2022/04/02 04:50:48;;;;;;;10.10;9.40;;;1.10;99.90;;;;;;4991691;28;20183;-66
2022/04/02 04:53:14;;;;;;;11.87;10.83;;;1.20;99.90;;;;;;4973945;28;20268;-66
2022/04/02 04:55:40;;;;;;;9.93;9.33;;;1.20;99.90;;;;;;4991227;28;20738;-66
2022/04/02 04:58:06;;;;;;;9.67;9.03;;;1.10;99.90;;;;;;4973790;28;20271;-66
2022/04/02 05:00:32;;;;;;;10.13;9.30;;;1.20;99.90;;;;;;4973590;28;20185;-66
2022/04/02 05:02:58;;;;;;;10.20;9.60;;;1.20;99.90;;;;;;4974295;28;20177;-66
2022/04/02 05:05:25;;;;;;;10.20;9.40;;;1.20;99.90;;;;;;4973781;28;20215;-66
2022/04/02 05:07:52;;;;;;;11.50;10.70;;;1.20;99.90;;;;;;4995019;28;20199;-66
2022/04/02 05:10:18;;;;;;;9.97;9.17;;;1.20;99.90;;;;;;4994457;28;20184;-66
2022/04/02 05:12:43;;;;;;;9.03;8.53;;;1.20;99.90;;;;;;4977428;28;20335;-66
2022/04/02 05:15:09;;;;;;;11.03;9.93;;;1.20;99.90;;;;;;4976051;28;20204;-66
2022/04/02 05:17:38;;;;;;;10.10;9.50;;;1.20;99.90;;;;;;4976226;28;20176;-66
2022/04/02 05:20:06;;;;;;;11.10;10.20;;;1.20;99.90;;;;;;4995023;28;20207;-66
2022/04/02 05:22:32;;;;;;;10.30;9.50;;;1.10;99.90;;;;;;4977045;28;20276;-66
2022/04/02 05:24:57;;;;;;;10.73;9.93;;;1.10;99.90;;;;;;4994288;28;20295;-66
2022/04/02 05:27:24;;;;;;;10.70;9.87;;;1.10;99.90;;;;;;4994670;28;20252;-66
2022/04/02 05:29:51;;;;;;;9.60;8.90;;;1.10;99.90;;;;;;4995061;28;20169;-66
2022/04/02 05:32:16;;;;;;;9.90;9.00;;;1.20;99.90;;;;;;4976749;28;20224;-66
2022/04/02 05:34:42;;;;;;;10.77;10.07;;;1.20;99.90;;;;;;4993168;28;20220;-66
2022/04/02 05:37:08;;;;;;;9.80;9.20;;;1.20;99.90;;;;;;4994591;28;20272;-66
2022/04/02 05:39:34;;;;;;;9.93;9.20;;;1.20;99.90;;;;;;4994110;28;20195;-66
2022/04/02 05:42:00;;;;;;;11.00;10.20;;;1.20;99.90;;;;;;4994446;28;20173;-67
2022/04/02 05:44:25;;;;;;;10.50;9.90;;;1.20;99.90;;;;;;4994261;28;20213;-66
2022/04/02 05:46:51;;;;;;;10.50;9.87;;;1.20;99.90;;;;;;4976679;28;20180;-66
2022/04/02 05:49:17;;;;;;;10.10;9.60;;;1.30;99.90;;;;;;4993749;28;20388;-66
2022/04/02 05:51:43;;;;;;;10.57;9.87;;;1.20;99.90;;;;;;4976326;28;20184;-66
2022/04/02 05:54:09;;;;;;;11.43;10.47;;;1.20;99.90;;;;;;4994189;28;20275;-66
2022/04/02 05:56:35;;;;;;;10.43;9.73;;;1.30;99.90;;;;;;4975620;28;20185;-66
2022/04/02 05:59:05;;;;;;;10.97;10.27;;;1.30;99.90;;;;;;4993127;28;20180;-66
2022/04/02 06:01:31;;;;;;;10.07;9.30;;;1.30;99.90;;;;;;4993902;28;20173;-66
2022/04/02 06:03:57;;;;;;;11.23;10.43;;;1.40;99.90;;;;;;4993973;28;20215;-66
2022/04/02 06:06:23;;;;;;;11.77;10.60;;;1.30;99.90;;;;;;4992361;28;20224;-66
2022/04/02 06:08:48;;;;;;;10.10;9.40;;;1.30;99.90;;;;;;4993076;28;20435;-65
2022/04/02 06:11:14;;;;;;;10.40;9.60;;;1.40;99.90;;;;;;4993369;28;20319;-66
2022/04/02 06:13:39;;;;;;;10.53;9.73;;;1.40;99.90;;;;;;4976454;28;20271;-65
2022/04/02 06:16:06;;;;;;;9.23;8.70;;;1.40;99.90;;;;;;4993388;28;20204;-66
2022/04/02 06:18:32;;;;;;;9.57;8.77;;;1.50;99.90;;;;;;4992446;28;20177;-66
2022/04/02 06:21:02;;;;;;;9.57;8.77;;;1.50;99.90;;;;;;4993741;28;20181;-66
2022/04/02 06:23:28;;;;;;;10.10;9.10;;;1.50;99.90;;;;;;4992625;28;20187;-65
2022/04/02 06:25:53;;;;;;;10.33;9.33;;;1.50;99.90;;;;;;4975448;28;20216;-66
2022/04/02 06:28:19;;;;;;;10.63;9.93;;;1.50;99.90;;;;;;4974675;28;20264;-66
2022/04/02 06:30:45;;;;;;;9.87;9.27;;;1.50;99.90;;;;;;4993198;28;20204;-66
2022/04/02 06:33:11;;;;;;;10.73;9.97;;;1.50;99.90;;;;;;4993346;28;20243;-67
2022/04/02 06:35:36;;;;;;;10.23;9.57;;;1.50;99.90;;;;;;4991994;28;20298;-66
2022/04/02 06:38:02;;;;;;;10.33;9.47;;;1.60;99.90;;;;;;4992764;28;20188;-66
2022/04/02 06:40:28;;;;;;;9.53;8.83;;;1.60;99.90;;;;;;4992096;28;20538;-65
2022/04/02 06:42:56;;;;;;;9.80;9.20;;;1.60;99.90;;;;;;4993352;28;20177;-65
2022/04/02 06:45:22;;;;;;;11.67;10.77;;;1.60;99.90;;;;;;4975054;28;20208;-67
2022/04/02 06:47:47;;;;;;;10.10;9.50;;;1.60;99.90;;;;;;4993243;28;20544;-65
2022/04/02 06:50:14;;;;;;;10.90;9.93;;;1.60;99.90;;;;;;4990840;28;20181;-66
2022/04/02 06:52:40;;;;;;;9.77;9.07;;;1.70;99.90;;;;;;4992624;28;20227;-66
2022/04/02 06:55:08;;;;;;;9.37;8.77;;;1.70;99.90;;;;;;4992411;28;20570;-67
2022/04/02 06:57:41;;;;;;;10.23;9.47;;;1.70;99.90;;;;;;4991910;28;20187;-67
2022/04/02 07:00:07;;;;;;;11.70;10.80;;;1.70;99.90;;;;;;4975420;28;20609;-67
2022/04/02 07:02:33;;;;;;;10.17;9.53;;;1.80;99.90;;;;;;4974589;28;20243;-67
2022/04/02 07:04:58;;;;;;;9.10;8.40;;;1.70;99.90;;;;;;4990775;28;20569;-66
2022/04/02 07:07:24;;;;;;;10.10;9.30;;;1.80;99.90;;;;;;4973646;28;20184;-67
2022/04/02 07:09:49;;;;;;;10.97;10.27;;;1.80;99.90;;;;;;4991908;28;20709;-67
2022/04/02 07:12:15;;;;;;;11.50;10.80;;;1.80;99.90;;;;;;4992560;28;20188;-67
2022/04/02 07:14:41;;;;;;;10.23;9.53;;;1.90;99.90;;;;;;4992038;28;20200;-67
2022/04/02 07:17:07;;;;;;;10.47;9.73;;;1.90;99.90;;;;;;4979273;28;20668;-66
2022/04/02 07:19:34;;;;;;;11.40;9.33;;;2.00;99.90;;;;;;4990259;28;20793;-66
2022/04/02 07:22:00;;;;;;;10.13;9.47;;;2.00;99.90;;;;;;4992355;28;20181;-66
2022/04/02 07:24:25;;;;;;;8.87;8.37;;;2.10;99.90;;;;;;4991105;28;20204;-67
2022/04/02 07:26:53;;;;;;;9.10;8.50;;;2.10;99.90;;;;;;4991402;28;20192;-66
2022/04/02 07:29:19;;;;;;;8.83;8.23;;;2.20;99.90;;;;;;4990923;28;20192;-67
2022/04/02 07:31:44;;;;;;;9.43;8.83;;;2.20;99.90;;;;;;4991960;28;20185;-67
2022/04/02 07:34:12;;;;;;;10.23;9.50;;;2.30;99.90;;;;;;4991372;28;20219;-66
2022/04/02 07:37:06;;;;;;;11.30;9.57;;;2.30;99.90;;;;;;4990945;28;20187;-66
2022/04/02 07:39:48;;;;;;;9.80;9.20;;;2.40;99.90;;;;;;4993991;28;20180;-67
2022/04/02 07:42:19;;;;;;;9.67;8.90;;;2.40;99.90;;;;;;4991049;28;20258;-66
2022/04/02 07:44:55;;;;;;;9.63;9.03;;;2.40;99.90;;;;;;4990917;28;20223;-66
2022/04/02 07:47:24;;;;;;;10.43;9.53;;;2.40;99.90;;;;;;4991829;28;20181;-67
2022/04/02 07:49:56;;;;;;;10.07;9.27;;;2.40;99.90;;;;;;4992185;28;20172;-67
2022/04/02 07:52:23;;;;;;;9.37;8.70;;;2.40;99.90;;;;;;4991725;28;20180;-67
2022/04/02 07:54:55;;;;;;;9.63;9.10;;;2.40;99.90;;;;;;4991713;28;20205;-66
2022/04/02 07:57:34;;;;;;;10.07;9.37;;;2.40;99.90;;;;;;4991888;28;20184;-67
2022/04/02 08:00:03;;;;;;;11.10;9.67;;;2.50;99.90;;;;;;4991403;28;20717;-67
2022/04/02 08:02:37;;;;;;;10.47;9.57;;;2.50;99.90;;;;;;4973401;28;20591;-67
2022/04/02 08:05:09;;;;;;;10.17;9.57;;;2.60;99.90;;;;;;4990933;28;20231;-67
2022/04/02 08:07:36;;;;;;;9.47;8.67;;;2.60;99.90;;;;;;4973807;28;20185;-67
2022/04/02 08:10:08;;;;;;;9.73;9.03;;;2.60;99.90;;;;;;4991206;28;20191;-67
2022/04/02 08:12:38;;;;;;;11.63;10.63;;;2.60;99.90;;;;;;4971920;28;20247;-67
2022/04/02 08:15:12;;;;;;;11.70;11.00;;;2.60;99.90;;;;;;4990859;28;20204;-67
2022/04/02 08:17:39;;;;;;;11.40;10.77;;;2.70;99.90;;;;;;4990937;28;20189;-66
2022/04/02 08:20:06;;;;;;;10.03;9.17;;;2.70;99.90;;;;;;4990819;28;20366;-68
2022/04/02 08:22:32;;;;;;;13.40;12.57;;;2.70;99.90;;;;;;4973497;28;20630;-66
2022/04/02 08:24:58;;;;;;;13.60;12.67;;;2.70;99.90;;;;;;4973510;28;20243;-66
2022/04/02 08:27:30;;;;;;;11.93;11.20;;;2.80;99.90;;;;;;4973931;28;20195;-66
2022/04/02 08:30:09;;;;;;;11.43;10.73;;;2.90;99.90;;;;;;4970887;28;20174;-66
2022/04/02 08:32:53;;;;;;;10.53;9.83;;;3.10;99.90;;;;;;4973801;28;20540;-67
2022/04/02 08:35:25;;;;;;;11.53;10.67;;;3.00;99.90;;;;;;4973660;28;20717;-66
2022/04/02 08:38:21;;;;;;;11.23;10.60;;;3.00;99.90;;;;;;4991318;28;20552;-66
2022/04/02 08:41:16;;;;;;;12.00;11.13;;;3.10;99.90;;;;;;4974892;28;20204;-66
2022/04/02 08:44:14;;;;;;;10.20;9.50;;;3.30;99.90;;;;;;4977370;28;20538;-66
2022/04/02 08:46:43;;;;;;;9.33;8.53;;;3.50;99.90;;;;;;4977357;28;20185;-66
2022/04/02 08:49:29;;;;;;;10.23;9.60;;;3.60;99.90;;;;;;4995279;28;20169;-66
2022/04/02 08:52:13;;;;;;;10.20;9.50;;;3.50;99.90;;;;;;4994563;28;20207;-66
2022/04/02 08:54:45;;;;;;;9.23;8.53;;;3.70;99.90;;;;;;4977141;28;20584;-66
2022/04/02 08:57:29;;;;;;;8.93;8.27;;;3.70;99.90;;;;;;4994839;28;20496;-67
2022/04/02 09:00:06;;;;;;;8.60;8.00;;;3.90;99.90;;;;;;4977201;28;20271;-67
2022/04/02 09:02:54;;;;;;;9.13;8.33;;;4.10;99.90;;;;;;4992738;28;20685;-66
2022/04/02 09:05:47;;;;;;;8.13;7.63;;;4.50;99.90;;;;;;4994430;28;20211;-66
2022/04/02 09:08:28;;;;;;;8.10;7.57;;;4.70;99.90;;;;;;4994802;28;20535;-66
2022/04/02 09:11:25;;;;;;;9.13;8.33;;;4.50;99.90;;;;;;4994941;28;20662;-66
2022/04/02 09:14:12;;;;;;;9.13;8.37;;;4.60;99.90;;;;;;4993987;28;20603;-66
2022/04/02 09:16:56;;;;;;;8.40;7.90;;;4.60;99.90;;;;;;4994128;28;20203;-66
2022/04/02 09:19:40;;;;;;;8.50;8.00;;;4.50;99.90;;;;;;4976622;28;20169;-66
2022/04/02 09:22:27;;;;;;;8.90;8.10;;;4.60;99.90;;;;;;4994842;28;20541;-66
2022/04/02 09:25:24;;;;;;;9.80;8.90;;;4.50;99.90;;;;;;4954032;28;20258;-65
2022/04/02 09:27:56;;;;;;;8.40;7.83;;;4.50;99.90;;;;;;4994734;28;20169;-67
2022/04/02 09:30:59;;;;;;;9.20;8.40;;;4.40;99.90;;;;;;4977031;28;20245;-66
2022/04/02 09:33:30;;;;;;;9.43;8.83;;;4.20;99.90;;;;;;4993999;28;20176;-67
2022/04/02 09:36:30;;;;;;;9.00;8.20;;;4.00;99.90;;;;;;5067212;22;20254;-66
2022/04/02 09:38:55;;;;;;;8.47;7.63;;;4.00;99.90;;;;;;5056250;28;20231;-67
2022/04/02 09:41:42;;;;;;;8.80;8.03;;;4.00;99.90;;;;;;5055229;28;20703;-68
2022/04/02 09:44:35;;;;;;;8.43;7.93;;;4.10;99.90;;;;;;5054850;28;20166;-67
2022/04/02 09:47:05;;;;;;;8.80;8.20;;;4.00;99.90;;;;;;5054149;28;20167;-67
2022/04/02 09:49:56;;;;;;;8.90;8.20;;;3.90;99.90;;;;;;5055000;28;20175;-66
2022/04/02 09:52:24;;;;;;;8.47;7.97;;;3.90;99.90;;;;;;5055664;28;20257;-68
2022/04/02 09:55:11;;;;;;;8.40;7.90;;;3.90;99.90;;;;;;5055387;28;20630;-68
2022/04/02 09:57:47;;;;;;;9.37;8.67;;;4.00;99.90;;;;;;5054283;28;20174;-68
2022/04/02 10:00:18;;;;;;;9.43;8.73;;;4.10;99.90;;;;;;5055698;28;20175;-67
2022/04/02 10:03:02;;;;;;;8.87;8.23;;;4.10;99.90;;;;;;5055603;28;20213;-67
2022/04/02 10:06:07;;;;;;;8.83;8.23;;;4.20;99.90;;;;;;5056164;28;20569;-67
2022/04/02 10:08:49;;;;;;;8.73;8.23;;;4.40;99.90;;;;;;5063580;28;20183;-68
2022/04/02 10:11:18;;;;;;;8.53;8.03;;;4.50;99.90;;;;;;5056034;28;20224;-67
2022/04/02 10:13:44;;;;;;;8.67;8.03;;;4.50;99.90;;;;;;5054777;28;20194;-67
2022/04/02 10:16:13;;;;;;;9.27;8.67;;;4.50;99.90;;;;;;5054296;28;20183;-67
2022/04/02 10:18:41;;;;;;;8.80;8.20;;;4.60;99.90;;;;;;5055991;28;20555;-67
2022/04/02 10:21:09;;;;;;;9.03;8.20;;;4.70;99.90;;;;;;5054677;28;20175;-67
2022/04/02 10:23:37;;;;;;;9.10;8.40;;;4.80;99.90;;;;;;5055107;28;20272;-67
2022/04/02 10:26:04;;;;;;;8.40;7.90;;;4.80;99.90;;;;;;5053012;28;20289;-66
2022/04/02 10:28:32;;;;;;;8.73;8.03;;;5.10;99.90;;;;;;5054748;28;20228;-67
2022/04/02 10:31:01;;;;;;;9.53;8.83;;;5.40;99.90;;;;;;5053214;28;20224;-67
2022/04/02 10:33:34;;;;;;;8.40;7.70;;;5.60;99.90;;;;;;5054148;28;20173;-67
2022/04/02 10:36:03;;;;;;;8.57;7.97;;;5.60;99.90;;;;;;5054557;28;20841;-67
2022/04/02 10:38:37;;;;;;;8.57;7.87;;;5.50;99.90;;;;;;5054872;28;20181;-66
2022/04/02 10:41:13;;;;;;;8.53;7.93;;;5.40;99.90;;;;;;5054119;28;20185;-67
2022/04/02 10:44:00;;;;;;;9.03;8.43;;;5.40;99.90;;;;;;5053303;28;20174;-67
2022/04/02 10:46:26;;;;;;;8.53;7.83;;;5.30;99.90;;;;;;5053310;28;20667;-67
2022/04/02 10:48:57;;;;;;;9.60;8.70;;;5.30;99.90;;;;;;5053639;28;20202;-67
2022/04/02 10:51:30;;;;;;;9.03;8.33;;;5.40;99.90;;;;;;5053207;28;20715;-66
2022/04/02 10:54:04;;;;;;;9.10;8.57;;;5.60;99.90;;;;;;5053593;28;20528;-67
2022/04/02 10:56:44;;;;;;;8.90;8.30;;;5.70;99.90;;;;;;5053019;28;20181;-67
2022/04/02 10:59:12;;;;;;;9.63;9.00;;;5.60;99.90;;;;;;5052754;28;20178;-67
2022/04/02 11:01:41;;;;;;;10.37;9.60;;;5.40;99.90;;;;;;5051642;28;20179;-67
2022/04/02 11:04:26;;;;;;;9.07;8.40;;;5.50;99.90;;;;;;5051720;28;20197;-67
2022/04/02 11:06:52;;;;;;;8.70;8.07;;;5.80;99.90;;;;;;5052829;28;20244;-67
2022/04/02 11:09:39;;;;;;;9.60;8.93;;;5.90;99.90;;;;;;5052363;28;20171;-67
2022/04/02 11:12:11;;;;;;;12.87;7.97;;;5.80;99.90;;;;;;5052029;28;20308;-68
2022/04/02 11:14:50;;;;;;;8.83;8.10;;;5.70;99.90;;;;;;5053011;28;20186;-68
2022/04/02 11:17:29;;;;;;;10.07;7.83;;;5.70;99.90;;;;;;5053797;28;20179;-67
2022/04/02 11:20:10;;;;;;;10.47;9.57;;;5.70;99.90;;;;;;5053350;28;20174;-66
2022/04/02 11:22:39;;;;;;;8.40;7.80;;;6.00;99.90;;;;;;5048508;28;20305;-67
2022/04/02 11:25:11;;;;;;;10.17;9.57;;;6.30;99.90;;;;;;5033146;28;20286;-67
2022/04/02 11:27:40;;;;;;;11.30;10.50;;;6.50;99.90;;;;;;5052265;28;20186;-67
2022/04/02 11:30:10;;;;;;;12.03;11.07;;;6.40;99.90;;;;;;5052439;28;20167;-67
2022/04/02 11:32:42;;;;;;;11.23;10.43;;;6.50;99.90;;;;;;5052460;28;20210;-67
2022/04/02 11:35:16;;;;;;;11.67;10.43;;;6.60;99.90;;;;;;5051408;28;20210;-67
2022/04/02 11:38:14;;;;;;;15.27;9.77;;;6.60;99.90;;;;;;5052905;28;20231;-66
2022/04/02 11:41:02;;;;;;;8.93;8.33;;;6.60;99.90;;;;;;5032766;28;20273;-67
2022/04/02 11:43:35;;;;;;;8.80;8.20;;;6.90;99.90;;;;;;5034459;28;20224;-66
2022/04/02 11:46:03;;;;;;;8.87;7.93;;;6.90;99.90;;;;;;5051793;28;20610;-67
2022/04/02 11:48:35;;;;;;;9.50;8.60;;;7.00;99.90;;;;;;5051698;28;20166;-67
2022/04/02 11:51:16;;;;;;;8.17;7.67;;;6.50;99.90;;;;;;5052199;28;20718;-66
2022/04/02 11:53:43;;;;;;;9.10;8.50;;;6.20;99.90;;;;;;5051712;28;20661;-67
2022/04/02 11:56:28;;;;;;;9.57;8.80;;;6.00;99.90;;;;;;5052969;28;20190;-66
2022/04/02 11:58:57;;;;;;;8.57;7.80;;;5.60;99.90;;;;;;5051726;28;20186;-67
2022/04/02 12:01:23;;;;;;;9.33;8.63;;;5.30;99.90;;;;;;5051198;28;20174;-67
2022/04/02 12:04:14;;;;;;;8.17;7.67;;;5.30;99.90;;;;;;5051300;28;20232;-66
2022/04/02 12:06:45;;;;;;;8.90;8.30;;;5.40;99.90;;;;;;5051121;28;20189;-67
2022/04/02 12:09:19;;;;;;;8.77;8.07;;;5.70;99.90;;;;;;5050088;28;20543;-68
2022/04/02 12:11:52;;;;;;;8.63;8.03;;;5.80;99.90;;;;;;5051059;28;20191;-67
2022/04/02 12:14:33;;;;;;;9.67;8.97;;;6.20;99.90;;;;;;5050143;28;20167;-66
2022/04/02 12:17:09;;;;;;;11.00;10.00;;;6.60;99.90;;;;;;5053990;28;20181;-67
2022/04/02 12:19:36;;;;;;;13.13;9.47;;;6.70;99.90;;;;;;5054066;28;20170;-66
2022/04/02 12:22:02;;;;;;;9.83;9.13;;;6.70;99.90;;;;;;5053968;28;20538;-67
2022/04/02 12:24:38;;;;;;;10.73;9.80;;;6.70;99.90;;;;;;5055081;28;20202;-65
2022/04/02 12:27:08;;;;;;;11.00;10.10;;;6.50;99.90;;;;;;5055698;28;20542;-67
2022/04/02 12:29:34;;;;;;;10.27;9.57;;;6.50;99.90;;;;;;5054718;28;20167;-67
2022/04/02 12:32:01;;;;;;;10.70;9.90;;;6.80;99.90;;;;;;5055332;28;20159;-66
2022/04/02 12:34:28;;;;;;;9.63;8.83;;;7.00;99.90;;;;;;5053100;28;20318;-66
2022/04/02 12:37:01;;;;;;;10.20;9.60;;;6.50;99.90;;;;;;5054294;28;20620;-66
2022/04/02 12:39:27;;;;;;;9.23;8.60;;;6.30;99.90;;;;;;5054311;28;20177;-66
2022/04/02 12:41:53;;;;;;;10.00;9.23;;;6.20;99.90;;;;;;5055018;28;20355;-67
2022/04/02 12:44:21;;;;;;;8.40;7.80;;;5.90;99.90;;;;;;5054475;28;20565;-66
2022/04/02 12:46:47;;;;;;;9.30;8.47;;;5.70;99.90;;;;;;5052738;28;20162;-66
2022/04/02 12:49:33;;;;;;;9.40;8.80;;;5.40;99.90;;;;;;5053967;28;20182;-66
2022/04/02 12:52:20;;;;;;;9.30;8.70;;;5.20;99.90;;;;;;5053040;28;20539;-67
2022/04/02 12:54:54;;;;;;;9.27;8.53;;;5.30;99.90;;;;;;5054304;28;20218;-66
2022/04/02 12:57:20;;;;;;;9.63;8.90;;;5.50;99.90;;;;;;5053271;28;20674;-66
2022/04/02 12:59:55;;;;;;;10.03;9.23;;;5.50;99.90;;;;;;5054735;28;20179;-67
2022/04/02 13:02:22;;;;;;;10.00;9.23;;;5.50;99.90;;;;;;5054815;28;20202;-66
2022/04/02 13:04:53;;;;;;;10.30;9.60;;;5.60;99.90;;;;;;5053887;28;20289;-66